createdAt,value
2018-07-01T00:01:21.305Z,18.30
2018-07-01T00:03:50.116Z,18.25
2018-07-01T00:06:18.886Z,18.22
2018-07-01T00:08:48.162Z,18.19
2018-07-01T00:11:17.229Z,18.14
2018-07-01T00:13:46.095Z,18.08
2018-07-01T00:16:15.071Z,18.04
2018-07-01T00:18:43.937Z,17.96
2018-07-01T00:21:12.728Z,17.91
2018-07-01T00:23:41.514Z,17.86
2018-07-01T00:26:10.483Z,17.85
2018-07-01T00:28:39.315Z,17.91
2018-07-01T00:31:08.116Z,17.84
2018-07-01T00:33:37.069Z,17.78
2018-07-01T00:36:05.892Z,17.74
2018-07-01T00:38:34.734Z,17.70
2018-07-01T00:41:03.624Z,17.76
2018-07-01T00:43:32.401Z,17.80
2018-07-01T00:46:01.181Z,17.89
2018-07-01T00:48:30.336Z,18.00
2018-07-01T00:50:59.115Z,18.08
2018-07-01T00:53:27.922Z,18.15
2018-07-01T00:55:56.936Z,18.24
2018-07-01T00:58:25.680Z,18.26
2018-07-01T01:00:54.463Z,18.30
2018-07-01T01:03:23.430Z,18.26
2018-07-01T01:05:52.181Z,18.31
2018-07-01T01:08:20.964Z,18.28
2018-07-01T01:10:49.790Z,18.34
2018-07-01T01:13:18.628Z,18.35
2018-07-01T01:15:47.427Z,18.33
2018-07-01T01:18:16.242Z,18.33
2018-07-01T01:20:45.022Z,18.30
2018-07-01T01:23:15.423Z,18.21
2018-07-01T01:25:44.221Z,18.13
2018-07-01T01:28:13.013Z,18.03
2018-07-01T01:30:41.767Z,17.93
2018-07-01T01:33:10.622Z,17.83
2018-07-01T01:35:39.494Z,17.72
2018-07-01T01:38:08.495Z,17.66
2018-07-01T01:40:41.958Z,17.58
2018-07-01T01:43:16.350Z,17.56
2018-07-01T01:45:49.271Z,17.46
2018-07-01T01:48:26.057Z,17.33
2018-07-01T01:51:13.254Z,17.35
2018-07-01T01:53:52.586Z,17.29
2018-07-01T01:56:27.956Z,17.21
2018-07-01T01:59:30.788Z,17.17
2018-07-01T02:02:24.054Z,17.10
2018-07-01T02:04:57.127Z,17.07
2018-07-01T02:07:32.256Z,17.05
2018-07-01T02:10:01.079Z,16.99
2018-07-01T02:12:29.923Z,16.84
2018-07-01T02:15:01.606Z,16.75
2018-07-01T02:17:33.971Z,16.69
2018-07-01T02:20:03.102Z,16.61
2018-07-01T02:24:39.834Z,16.50
2018-07-01T02:27:10.306Z,16.41
2018-07-01T02:29:39.143Z,16.37
2018-07-01T02:32:08.005Z,16.33
2018-07-01T02:34:36.774Z,16.21
2018-07-01T02:37:05.684Z,16.16
2018-07-01T02:39:34.521Z,16.11
2018-07-01T02:42:03.497Z,16.03
2018-07-01T02:44:32.308Z,15.98
2018-07-01T02:47:01.073Z,15.97
2018-07-01T02:49:31.717Z,15.94
2018-07-01T02:52:00.486Z,15.88
2018-07-01T02:54:29.815Z,15.84
2018-07-01T02:56:58.952Z,15.79
2018-07-01T02:59:27.728Z,15.82
2018-07-01T03:01:56.507Z,15.77
2018-07-01T03:04:25.450Z,16.07
2018-07-01T03:06:54.218Z,16.79
2018-07-01T03:09:23.009Z,17.84
2018-07-01T03:11:51.810Z,18.95
2018-07-01T03:14:20.562Z,20.02
2018-07-01T03:16:49.343Z,21.05
2018-07-01T03:19:18.239Z,21.92
2018-07-01T03:21:47.015Z,23.04
2018-07-01T03:24:15.801Z,24.44
2018-07-01T03:26:44.635Z,25.61
2018-07-01T03:29:13.566Z,26.63
2018-07-01T03:31:42.335Z,27.94
2018-07-01T03:34:12.442Z,28.81
2018-07-01T03:36:41.265Z,29.73
2018-07-01T03:39:10.593Z,29.65
2018-07-01T03:41:39.608Z,30.34
2018-07-01T03:44:08.399Z,31.36
2018-07-01T03:46:37.834Z,31.80
2018-07-01T03:49:07.225Z,32.52
2018-07-01T03:51:36.036Z,33.18
2018-07-01T03:54:04.953Z,33.21
2018-07-01T03:56:34.623Z,34.17
2018-07-01T03:59:03.441Z,34.81
2018-07-01T04:01:32.229Z,35.11
2018-07-01T04:04:01.058Z,35.85
2018-07-01T04:06:29.914Z,36.38
2018-07-01T04:08:58.704Z,36.32
2018-07-01T04:11:27.523Z,36.83
2018-07-01T04:13:56.322Z,37.02
2018-07-01T04:16:25.140Z,37.56
2018-07-01T04:18:53.969Z,37.86
2018-07-01T04:21:22.745Z,38.51
2018-07-01T04:23:51.548Z,38.95
2018-07-01T04:26:20.335Z,39.13
2018-07-01T04:28:49.089Z,39.30
2018-07-01T04:31:17.914Z,38.70
2018-07-01T04:33:46.712Z,39.10
2018-07-01T04:36:15.503Z,39.41
2018-07-01T04:38:44.256Z,40.24
2018-07-01T04:41:13.372Z,40.50
2018-07-01T04:43:42.164Z,40.19
2018-07-01T04:46:10.946Z,40.34
2018-07-01T04:48:39.892Z,40.06
2018-07-01T04:51:08.802Z,40.01
2018-07-01T04:53:37.576Z,39.81
2018-07-01T04:56:06.432Z,40.12
2018-07-01T04:58:35.209Z,40.08
2018-07-01T05:01:04.072Z,40.64
2018-07-01T05:03:32.953Z,40.70
2018-07-01T05:06:01.752Z,40.10
2018-07-01T05:08:30.564Z,39.87
2018-07-01T05:10:59.488Z,39.21
2018-07-01T05:13:28.271Z,39.15
2018-07-01T05:15:57.013Z,38.71
2018-07-01T05:18:26.148Z,38.14
2018-07-01T05:20:54.924Z,37.60
2018-07-01T05:23:23.731Z,36.85
2018-07-01T05:25:52.665Z,36.57
2018-07-01T05:28:21.505Z,35.69
2018-07-01T05:30:50.294Z,34.91
2018-07-01T05:33:19.136Z,34.37
2018-07-01T05:35:47.926Z,33.61
2018-07-01T05:38:16.715Z,33.02
2018-07-01T05:40:45.540Z,32.40
2018-07-01T05:43:14.332Z,31.69
2018-07-01T05:45:43.188Z,31.28
2018-07-01T05:48:12.028Z,30.98
2018-07-01T05:50:40.799Z,30.27
2018-07-01T05:53:09.583Z,29.99
2018-07-01T05:55:38.387Z,29.79
2018-07-01T05:58:07.289Z,29.37
2018-07-01T06:00:36.265Z,29.09
2018-07-01T06:03:05.146Z,28.90
2018-07-01T06:05:33.984Z,28.85
2018-07-01T06:08:02.763Z,28.83
2018-07-01T06:10:31.577Z,28.94
2018-07-01T06:13:00.383Z,29.03
2018-07-01T06:15:29.180Z,28.80
2018-07-01T06:17:58.025Z,28.61
2018-07-01T06:20:26.889Z,28.47
2018-07-01T06:22:55.704Z,28.40
2018-07-01T06:25:24.879Z,28.26
2018-07-01T06:27:53.656Z,28.02
2018-07-01T06:30:23.449Z,27.98
2018-07-01T06:32:52.337Z,27.97
2018-07-01T06:35:21.137Z,27.46
2018-07-01T06:37:49.948Z,27.41
2018-07-01T06:40:19.005Z,27.21
2018-07-01T06:42:47.813Z,27.02
2018-07-01T06:45:16.621Z,27.21
2018-07-01T06:47:45.463Z,27.29
2018-07-01T06:50:14.256Z,27.16
2018-07-01T06:52:43.016Z,27.07
2018-07-01T06:55:13.843Z,26.96
2018-07-01T06:57:42.645Z,27.01
2018-07-01T07:00:11.508Z,27.18
2018-07-01T07:02:40.320Z,26.77
2018-07-01T07:05:09.142Z,26.47
2018-07-01T07:07:37.956Z,26.69
2018-07-01T07:10:07.025Z,27.09
2018-07-01T07:12:35.817Z,26.95
2018-07-01T07:15:04.715Z,26.78
2018-07-01T07:17:33.603Z,26.66
2018-07-01T07:20:02.695Z,26.55
2018-07-01T07:22:31.472Z,26.63
2018-07-01T07:25:00.339Z,26.63
2018-07-01T07:27:29.196Z,26.41
2018-07-01T07:29:57.985Z,26.09
2018-07-01T07:32:26.820Z,26.45
2018-07-01T07:34:56.652Z,26.58
2018-07-01T07:37:25.476Z,26.61
2018-07-01T07:39:54.317Z,26.56
2018-07-01T07:42:23.105Z,26.35
2018-07-01T07:44:52.269Z,26.25
2018-07-01T07:47:21.237Z,26.08
2018-07-01T07:49:50.036Z,25.96
2018-07-01T07:52:18.957Z,25.82
2018-07-01T07:54:47.732Z,25.44
2018-07-01T07:57:16.589Z,25.20
2018-07-01T07:59:45.436Z,25.03
2018-07-01T08:02:14.424Z,25.22
2018-07-01T08:04:43.237Z,25.45
2018-07-01T08:07:12.585Z,25.33
2018-07-01T08:09:41.435Z,25.58
2018-07-01T08:12:10.264Z,25.75
2018-07-01T08:14:39.381Z,25.69
2018-07-01T08:17:08.247Z,25.53
2018-07-01T08:19:37.028Z,25.57
2018-07-01T08:22:05.825Z,25.89
2018-07-01T08:24:36.414Z,26.09
2018-07-01T08:27:05.281Z,25.81
2018-07-01T08:29:34.052Z,25.85
2018-07-01T08:32:02.974Z,25.73
2018-07-01T08:34:31.864Z,25.41
2018-07-01T08:37:00.646Z,25.41
2018-07-01T08:39:29.466Z,25.22
2018-07-01T08:42:35.591Z,24.94
2018-07-01T08:45:05.969Z,25.03
2018-07-01T08:47:35.364Z,25.27
2018-07-01T08:50:05.099Z,25.27
2018-07-01T08:52:34.249Z,25.43
2018-07-01T08:55:03.098Z,25.65
2018-07-01T08:57:31.944Z,25.75
2018-07-01T09:00:01.005Z,25.66
2018-07-01T09:02:29.809Z,25.82
2018-07-01T09:04:58.606Z,25.54
2018-07-01T09:07:27.592Z,25.68
2018-07-01T09:09:56.386Z,25.70
2018-07-01T09:12:25.198Z,25.89
2018-07-01T09:14:54.193Z,25.88
2018-07-01T09:17:23.005Z,25.96
2018-07-01T09:19:51.797Z,26.01
2018-07-01T09:22:20.717Z,26.00
2018-07-01T09:24:49.524Z,26.03
2018-07-01T09:27:18.329Z,26.12
2018-07-01T09:29:53.790Z,26.13
2018-07-01T09:32:22.615Z,26.05
2018-07-01T09:34:51.404Z,26.32
2018-07-01T09:37:20.232Z,26.29
2018-07-01T09:39:49.061Z,26.48
2018-07-01T09:42:17.875Z,26.44
2018-07-01T09:44:47.663Z,26.54
2018-07-01T09:47:17.429Z,26.76
2018-07-01T09:49:47.358Z,26.67
2018-07-01T09:52:16.327Z,26.75
2018-07-01T09:54:45.120Z,26.78
2018-07-01T09:57:13.991Z,26.79
2018-07-01T09:59:43.120Z,26.77
2018-07-01T10:02:11.980Z,26.77
2018-07-01T10:04:40.795Z,26.76
2018-07-01T10:07:09.627Z,26.72
2018-07-01T10:09:38.451Z,26.78
2018-07-01T10:12:07.375Z,26.79
2018-07-01T10:14:36.166Z,26.85
2018-07-01T10:17:05.112Z,26.79
2018-07-01T10:19:33.972Z,26.79
2018-07-01T10:22:03.150Z,26.85
2018-07-01T10:24:31.956Z,26.96
2018-07-01T10:27:00.782Z,27.06
2018-07-01T10:29:29.635Z,26.95
2018-07-01T10:31:58.480Z,26.83
2018-07-01T10:34:28.421Z,26.86
2018-07-01T10:36:57.418Z,26.96
2018-07-01T10:39:26.238Z,27.12
2018-07-01T10:41:55.024Z,27.16
2018-07-01T10:44:24.018Z,27.26
2018-07-01T10:46:52.835Z,26.98
2018-07-01T10:49:21.646Z,26.88
2018-07-01T10:51:50.489Z,26.79
2018-07-01T10:54:19.300Z,26.95
2018-07-01T10:56:48.104Z,26.95
2018-07-01T10:59:17.334Z,26.96
2018-07-01T11:01:46.190Z,26.96
2018-07-01T11:04:15.001Z,26.77
2018-07-01T11:06:43.945Z,26.70
2018-07-01T11:09:13.371Z,26.72
2018-07-01T11:11:42.219Z,26.63
2018-07-01T11:14:11.117Z,26.51
2018-07-01T11:16:39.934Z,26.42
2018-07-01T11:19:09.781Z,26.37
2018-07-01T11:21:38.652Z,26.21
2018-07-01T11:24:07.533Z,25.78
2018-07-01T11:26:36.335Z,25.53
2018-07-01T11:29:05.494Z,25.53
2018-07-01T11:31:34.321Z,25.55
2018-07-01T11:34:03.113Z,25.63
2018-07-01T11:36:32.174Z,25.83
2018-07-01T11:39:00.996Z,25.84
2018-07-01T11:41:29.783Z,25.87
2018-07-01T11:43:58.696Z,25.80
2018-07-01T11:46:27.476Z,25.92
2018-07-01T11:48:56.867Z,25.92
2018-07-01T11:51:25.673Z,26.04
2018-07-01T11:53:54.466Z,26.10
2018-07-01T11:56:23.299Z,26.10
2018-07-01T11:58:52.370Z,26.14
2018-07-01T12:01:21.173Z,25.87
2018-07-01T12:03:50.029Z,25.55
2018-07-01T12:06:18.976Z,25.17
2018-07-01T12:08:47.787Z,24.96
2018-07-01T12:11:16.593Z,24.70
2018-07-01T12:13:45.408Z,24.69
2018-07-01T12:16:14.190Z,24.96
2018-07-01T12:18:43.009Z,25.17
2018-07-01T12:21:11.867Z,25.39
2018-07-01T12:23:40.741Z,25.61
2018-07-01T12:26:10.945Z,25.78
2018-07-01T12:28:39.822Z,25.75
2018-07-01T12:31:08.667Z,25.85
2018-07-01T12:33:37.478Z,25.93
2018-07-01T12:36:06.456Z,25.82
2018-07-01T12:38:35.335Z,25.61
2018-07-01T12:41:04.189Z,25.53
2018-07-01T12:43:33.152Z,25.43
2018-07-01T12:46:02.027Z,25.31
2018-07-01T12:48:30.827Z,25.27
2018-07-01T12:50:59.662Z,25.33
2018-07-01T12:53:28.497Z,25.12
2018-07-01T12:55:57.336Z,25.03
2018-07-01T12:58:26.214Z,24.92
2018-07-01T13:00:55.061Z,24.89
2018-07-01T13:03:23.868Z,24.72
2018-07-01T13:05:52.711Z,24.68
2018-07-01T13:08:21.513Z,24.43
2018-07-01T13:10:50.319Z,24.31
2018-07-01T13:13:19.324Z,24.42
2018-07-01T13:15:48.193Z,24.46
2018-07-01T13:18:17.050Z,24.79
2018-07-01T13:20:45.876Z,25.15
2018-07-01T13:23:14.852Z,25.47
2018-07-01T13:25:43.630Z,25.59
2018-07-01T13:28:12.455Z,25.74
2018-07-01T13:30:41.223Z,25.80
2018-07-01T13:33:10.070Z,25.81
2018-07-01T13:35:38.907Z,25.78
2018-07-01T13:38:07.757Z,25.67
2018-07-01T13:40:36.629Z,25.52
2018-07-01T13:43:05.561Z,25.37
2018-07-01T13:45:34.413Z,25.20
2018-07-01T13:48:03.267Z,25.23
2018-07-01T13:50:32.230Z,24.99
2018-07-01T13:53:01.332Z,25.02
2018-07-01T13:55:31.949Z,24.88
2018-07-01T13:58:01.093Z,24.80
2018-07-01T14:00:29.904Z,24.56
2018-07-01T14:02:58.732Z,24.48
2018-07-01T14:05:27.555Z,24.24
2018-07-01T14:07:56.384Z,24.10
2018-07-01T14:10:25.201Z,23.99
2018-07-01T14:12:54.037Z,23.87
2018-07-01T14:15:22.854Z,23.79
2018-07-01T14:17:51.624Z,23.84
2018-07-01T14:20:20.668Z,23.84
2018-07-01T14:22:49.455Z,23.84
2018-07-01T14:25:18.277Z,23.81
2018-07-01T14:27:47.322Z,23.85
2018-07-01T14:30:16.148Z,23.77
2018-07-01T14:32:44.926Z,23.78
2018-07-01T14:35:13.857Z,23.77
2018-07-01T14:37:42.644Z,23.82
2018-07-01T14:40:11.470Z,23.94
2018-07-01T14:42:40.286Z,24.09
2018-07-01T14:45:09.105Z,24.19
2018-07-01T14:47:37.944Z,24.11
2018-07-01T14:50:07.213Z,24.17
2018-07-01T14:52:35.994Z,24.18
2018-07-01T14:55:05.164Z,24.18
2018-07-01T14:57:34.724Z,24.20
2018-07-01T15:00:03.616Z,24.14
2018-07-01T15:02:32.445Z,24.17
2018-07-01T15:05:01.981Z,24.17
2018-07-01T15:07:30.779Z,24.17
2018-07-01T15:09:59.561Z,24.27
2018-07-01T15:12:28.346Z,24.32
2018-07-01T15:14:57.136Z,24.37
2018-07-01T15:17:25.938Z,24.49
2018-07-01T15:19:54.913Z,24.47
2018-07-01T15:22:23.690Z,24.50
2018-07-01T15:24:54.345Z,24.52
2018-07-01T15:27:23.187Z,24.46
2018-07-01T15:29:51.987Z,24.27
2018-07-01T15:32:20.836Z,24.23
2018-07-01T15:34:49.757Z,24.11
2018-07-01T15:37:18.539Z,24.08
2018-07-01T15:39:47.336Z,24.10
2018-07-01T15:42:16.270Z,24.08
2018-07-01T15:44:45.064Z,24.07
2018-07-01T15:47:13.872Z,23.99
2018-07-01T15:49:42.784Z,23.93
2018-07-01T15:52:11.649Z,23.80
2018-07-01T15:54:40.467Z,23.68
2018-07-01T15:57:09.320Z,23.50
2018-07-01T15:59:38.217Z,23.41
2018-07-01T16:02:07.175Z,23.42
2018-07-01T16:04:36.024Z,23.41
2018-07-01T16:07:04.854Z,23.34
2018-07-01T16:09:33.699Z,23.27
2018-07-01T16:12:02.561Z,23.12
2018-07-01T16:14:31.321Z,23.06
2018-07-01T16:17:00.124Z,22.99
2018-07-01T16:19:29.104Z,22.90
2018-07-01T16:21:57.932Z,22.82
2018-07-01T18:14:26.030Z,23.18
2018-07-01T18:16:54.818Z,23.26
2018-07-01T18:19:23.405Z,23.31
2018-07-01T18:22:21.725Z,23.30
2018-07-01T18:24:48.928Z,23.24
2018-07-01T18:26:50.445Z,23.20
2018-07-01T18:29:20.535Z,23.21
2018-07-01T18:31:49.064Z,23.24
2018-07-01T18:34:18.134Z,23.28
2018-07-01T18:36:47.683Z,23.19
2018-07-01T18:39:17.050Z,23.08
2018-07-01T18:41:46.349Z,23.00
2018-07-01T18:44:16.933Z,22.63
2018-07-01T18:46:46.148Z,22.74
2018-07-01T18:49:16.197Z,22.64
2018-07-01T18:54:26.817Z,21.79
2018-07-01T18:56:57.129Z,21.58
2018-07-01T18:59:27.541Z,21.33
2018-07-01T19:01:56.247Z,21.24
2018-07-01T19:04:26.013Z,21.02
2018-07-01T19:08:17.333Z,20.95
2018-07-01T19:09:11.812Z,20.92
2018-07-01T19:10:05.525Z,20.86
2018-07-01T19:10:59.075Z,20.89
2018-07-01T19:11:52.753Z,20.90
2018-07-01T19:12:46.609Z,20.92
2018-07-01T19:13:40.888Z,20.93
2018-07-01T19:14:34.640Z,20.94
2018-07-01T19:16:08.113Z,20.93
2018-07-01T19:17:02.066Z,20.92
2018-07-01T19:17:57.500Z,20.89
2018-07-01T19:18:51.171Z,20.91
2018-07-01T19:19:44.804Z,20.97
2018-07-01T19:20:39.773Z,20.98
2018-07-01T19:21:33.693Z,20.87
2018-07-01T19:22:27.728Z,20.97
2018-07-01T19:23:21.408Z,20.97
2018-07-01T19:24:15.800Z,21.01
2018-07-01T19:25:10.491Z,21.04
2018-07-01T19:26:04.392Z,21.03
2018-07-01T19:26:58.114Z,21.05
2018-07-01T19:28:13.464Z,21.03
2018-07-01T19:28:57.036Z,21.04
2018-07-01T19:29:41.162Z,21.05
2018-07-01T19:30:54.084Z,21.08
2018-07-01T19:31:37.711Z,21.07
2018-07-01T19:32:21.315Z,21.09
2018-07-01T19:33:05.018Z,21.10
2018-07-01T19:33:49.312Z,21.11
2018-07-01T19:34:32.917Z,21.09
2018-07-01T19:35:16.474Z,21.10
2018-07-01T19:36:00.074Z,20.94
2018-07-01T19:36:43.606Z,20.85
2018-07-01T19:37:27.180Z,20.81
2018-07-01T19:38:10.724Z,20.79
2018-07-01T19:38:54.280Z,20.81
2018-07-01T19:39:37.846Z,20.76
2018-07-01T19:40:21.429Z,20.81
2018-07-01T19:41:05.021Z,20.84
2018-07-01T19:41:48.607Z,20.87
2018-07-01T19:42:33.911Z,20.87
2018-07-01T19:43:17.927Z,20.89
2018-07-01T19:44:01.649Z,20.90
2018-07-01T19:44:45.232Z,20.88
2018-07-01T19:45:29.140Z,20.87
2018-07-01T19:46:12.818Z,20.87
2018-07-01T19:46:56.514Z,20.86
2018-07-01T19:47:40.154Z,20.85
2018-07-01T19:48:23.778Z,20.85
2018-07-01T19:49:07.325Z,20.88
2018-07-01T19:49:50.868Z,20.89
2018-07-01T19:50:34.500Z,20.89
2018-07-01T19:51:18.370Z,20.90
2018-07-01T19:52:02.324Z,20.90
2018-07-01T19:52:45.896Z,20.90
2018-07-01T19:53:29.997Z,20.88
2018-07-01T19:54:14.940Z,20.87
2018-07-01T19:54:59.724Z,20.87
2018-07-01T19:55:43.900Z,20.87
2018-07-01T19:56:28.084Z,20.87
2018-07-01T19:57:12.296Z,20.88
2018-07-01T20:15:26.583Z,20.41
2018-07-01T20:30:32.428Z,20.33
2018-07-01T20:45:37.236Z,20.38
2018-07-01T21:00:40.877Z,20.35
2018-07-01T21:15:44.848Z,20.29
2018-07-01T21:30:48.630Z,20.18
2018-07-01T21:45:52.742Z,20.20
2018-07-01T22:00:56.607Z,20.18
2018-07-01T22:16:09.426Z,20.16
2018-07-01T22:31:14.900Z,20.23
2018-07-01T22:46:19.850Z,19.75
2018-07-01T23:01:25.945Z,19.66
2018-07-01T23:16:31.098Z,19.62
2018-07-01T23:31:34.996Z,18.69
2018-07-01T23:46:38.960Z,18.31
